sensor_id;sensor_type;location;lat;lon;timestamp;P1;durP1;ratioP1;P2;durP2;ratioP2
15102;SDS011;7652;53.584;9.998;2023-06-24T00:00:38;7.90;;;7.10;;
15102;SDS011;7652;53.584;9.998;2023-06-24T00:04:01;8.67;;;7.37;;
15102;SDS011;7652;53.584;9.998;2023-06-24T00:07:22;8.23;;;7.43;;
15102;SDS011;7652;53.584;9.998;2023-06-24T00:10:46;8.63;;;7.77;;
15102;SDS011;7652;53.584;9.998;2023-06-24T00:14:08;9.50;;;7.43;;
15102;SDS011;7652;53.584;9.998;2023-06-24T00:17:31;7.83;;;7.10;;
15102;SDS011;7652;53.584;9.998;2023-06-24T00:20:54;9.40;;;7.67;;
15102;SDS011;7652;53.584;9.998;2023-06-24T00:24:15;9.17;;;7.00;;
15102;SDS011;7652;53.584;9.998;2023-06-24T00:27:39;7.20;;;6.57;;
15102;SDS011;7652;53.584;9.998;2023-06-24T00:31:00;8.87;;;7.00;;
15102;SDS011;7652;53.584;9.998;2023-06-24T00:34:23;8.37;;;7.57;;
15102;SDS011;7652;53.584;9.998;2023-06-24T00:37:46;8.77;;;7.90;;
15102;SDS011;7652;53.584;9.998;2023-06-24T00:41:07;8.00;;;7.30;;
15102;SDS011;7652;53.584;9.998;2023-06-24T00:44:28;8.63;;;7.40;;
15102;SDS011;7652;53.584;9.998;2023-06-24T00:47:50;8.03;;;7.23;;
15102;SDS011;7652;53.584;9.998;2023-06-24T00:51:14;7.43;;;6.70;;
15102;SDS011;7652;53.584;9.998;2023-06-24T00:54:37;8.87;;;7.10;;
15102;SDS011;7652;53.584;9.998;2023-06-24T00:57:58;9.07;;;7.53;;
15102;SDS011;7652;53.584;9.998;2023-06-24T01:01:21;9.80;;;8.20;;
15102;SDS011;7652;53.584;9.998;2023-06-24T01:04:43;7.60;;;6.90;;
15102;SDS011;7652;53.584;9.998;2023-06-24T01:08:06;8.60;;;7.50;;
15102;SDS011;7652;53.584;9.998;2023-06-24T01:11:29;8.30;;;7.50;;
15102;SDS011;7652;53.584;9.998;2023-06-24T01:14:51;8.73;;;7.53;;
15102;SDS011;7652;53.584;9.998;2023-06-24T01:18:13;7.20;;;6.53;;
15102;SDS011;7652;53.584;9.998;2023-06-24T01:21:46;8.10;;;7.00;;
15102;SDS011;7652;53.584;9.998;2023-06-24T01:25:17;8.10;;;7.30;;
15102;SDS011;7652;53.584;9.998;2023-06-24T01:29:01;10.23;;;7.30;;
15102;SDS011;7652;53.584;9.998;2023-06-24T01:32:44;9.00;;;7.30;;
15102;SDS011;7652;53.584;9.998;2023-06-24T01:36:11;11.03;;;7.27;;
15102;SDS011;7652;53.584;9.998;2023-06-24T01:39:37;9.83;;;7.93;;
15102;SDS011;7652;53.584;9.998;2023-06-24T01:43:08;8.87;;;7.87;;
15102;SDS011;7652;53.584;9.998;2023-06-24T01:46:30;8.20;;;7.47;;
15102;SDS011;7652;53.584;9.998;2023-06-24T01:49:54;9.27;;;6.93;;
15102;SDS011;7652;53.584;9.998;2023-06-24T01:53:20;8.67;;;7.50;;
15102;SDS011;7652;53.584;9.998;2023-06-24T01:56:41;9.57;;;7.13;;
15102;SDS011;7652;53.584;9.998;2023-06-24T02:00:05;8.27;;;6.73;;
15102;SDS011;7652;53.584;9.998;2023-06-24T02:03:29;8.80;;;7.37;;
15102;SDS011;7652;53.584;9.998;2023-06-24T02:06:53;9.80;;;7.33;;
15102;SDS011;7652;53.584;9.998;2023-06-24T02:10:15;7.80;;;7.00;;
15102;SDS011;7652;53.584;9.998;2023-06-24T02:13:38;7.57;;;6.83;;
15102;SDS011;7652;53.584;9.998;2023-06-24T02:17:01;9.20;;;7.30;;
15102;SDS011;7652;53.584;9.998;2023-06-24T02:20:27;8.07;;;7.07;;
15102;SDS011;7652;53.584;9.998;2023-06-24T02:23:50;8.07;;;7.27;;
15102;SDS011;7652;53.584;9.998;2023-06-24T02:27:12;7.63;;;6.93;;
15102;SDS011;7652;53.584;9.998;2023-06-24T02:30:34;8.80;;;6.77;;
15102;SDS011;7652;53.584;9.998;2023-06-24T02:33:57;7.17;;;6.20;;
15102;SDS011;7652;53.584;9.998;2023-06-24T02:37:18;8.20;;;7.40;;
15102;SDS011;7652;53.584;9.998;2023-06-24T02:40:41;8.10;;;6.73;;
15102;SDS011;7652;53.584;9.998;2023-06-24T02:44:04;8.27;;;7.47;;
15102;SDS011;7652;53.584;9.998;2023-06-24T02:47:25;9.03;;;6.80;;
15102;SDS011;7652;53.584;9.998;2023-06-24T02:50:48;9.13;;;7.10;;
15102;SDS011;7652;53.584;9.998;2023-06-24T02:54:10;10.60;;;8.00;;
15102;SDS011;7652;53.584;9.998;2023-06-24T02:57:33;8.53;;;7.37;;
15102;SDS011;7652;53.584;9.998;2023-06-24T03:00:57;9.37;;;8.23;;
15102;SDS011;7652;53.584;9.998;2023-06-24T03:04:19;8.27;;;7.47;;
15102;SDS011;7652;53.584;9.998;2023-06-24T03:07:41;9.17;;;8.00;;
15102;SDS011;7652;53.584;9.998;2023-06-24T03:11:03;9.13;;;8.30;;
15102;SDS011;7652;53.584;9.998;2023-06-24T03:14:26;13.00;;;9.50;;
15102;SDS011;7652;53.584;9.998;2023-06-24T03:17:49;9.57;;;8.43;;
15102;SDS011;7652;53.584;9.998;2023-06-24T03:21:12;9.63;;;8.37;;
15102;SDS011;7652;53.584;9.998;2023-06-24T03:24:33;12.23;;;8.73;;
15102;SDS011;7652;53.584;9.998;2023-06-24T03:27:55;10.87;;;9.40;;
15102;SDS011;7652;53.584;9.998;2023-06-24T03:31:17;8.80;;;7.77;;
15102;SDS011;7652;53.584;9.998;2023-06-24T03:34:43;10.80;;;7.67;;
15102;SDS011;7652;53.584;9.998;2023-06-24T03:38:05;9.07;;;8.17;;
15102;SDS011;7652;53.584;9.998;2023-06-24T03:41:26;13.50;;;9.03;;
15102;SDS011;7652;53.584;9.998;2023-06-24T03:44:47;10.10;;;8.50;;
15102;SDS011;7652;53.584;9.998;2023-06-24T03:48:10;8.87;;;7.97;;
15102;SDS011;7652;53.584;9.998;2023-06-24T03:51:31;11.67;;;8.50;;
15102;SDS011;7652;53.584;9.998;2023-06-24T03:54:53;11.50;;;8.10;;
15102;SDS011;7652;53.584;9.998;2023-06-24T03:58:14;8.87;;;7.93;;
15102;SDS011;7652;53.584;9.998;2023-06-24T04:01:36;8.70;;;7.50;;
15102;SDS011;7652;53.584;9.998;2023-06-24T04:05:00;9.47;;;7.07;;
15102;SDS011;7652;53.584;9.998;2023-06-24T04:08:21;8.37;;;7.57;;
15102;SDS011;7652;53.584;9.998;2023-06-24T04:11:44;9.53;;;7.87;;
15102;SDS011;7652;53.584;9.998;2023-06-24T04:15:06;12.77;;;7.47;;
15102;SDS011;7652;53.584;9.998;2023-06-24T04:18:29;8.43;;;7.27;;
15102;SDS011;7652;53.584;9.998;2023-06-24T04:21:51;8.83;;;7.43;;
15102;SDS011;7652;53.584;9.998;2023-06-24T04:25:13;8.17;;;7.10;;
15102;SDS011;7652;53.584;9.998;2023-06-24T04:28:34;9.87;;;7.33;;
15102;SDS011;7652;53.584;9.998;2023-06-24T04:31:55;6.50;;;5.83;;
15102;SDS011;7652;53.584;9.998;2023-06-24T04:35:17;6.20;;;5.60;;
15102;SDS011;7652;53.584;9.998;2023-06-24T04:38:40;10.00;;;6.37;;
15102;SDS011;7652;53.584;9.998;2023-06-24T04:42:02;7.80;;;6.60;;
15102;SDS011;7652;53.584;9.998;2023-06-24T04:45:23;7.00;;;6.17;;
15102;SDS011;7652;53.584;9.998;2023-06-24T04:48:45;7.57;;;6.07;;
15102;SDS011;7652;53.584;9.998;2023-06-24T04:52:06;5.87;;;5.30;;
15102;SDS011;7652;53.584;9.998;2023-06-24T04:55:29;6.43;;;5.80;;
15102;SDS011;7652;53.584;9.998;2023-06-24T04:58:50;7.30;;;6.43;;
15102;SDS011;7652;53.584;9.998;2023-06-24T05:02:12;6.07;;;5.40;;
15102;SDS011;7652;53.584;9.998;2023-06-24T05:05:33;6.13;;;5.53;;
15102;SDS011;7652;53.584;9.998;2023-06-24T05:08:55;8.70;;;5.70;;
15102;SDS011;7652;53.584;9.998;2023-06-24T05:12:18;8.73;;;5.30;;
15102;SDS011;7652;53.584;9.998;2023-06-24T05:15:39;6.13;;;5.53;;
15102;SDS011;7652;53.584;9.998;2023-06-24T05:19:01;7.07;;;6.03;;
15102;SDS011;7652;53.584;9.998;2023-06-24T05:22:23;6.67;;;5.67;;
15102;SDS011;7652;53.584;9.998;2023-06-24T05:25:44;6.50;;;4.93;;
15102;SDS011;7652;53.584;9.998;2023-06-24T05:29:07;5.57;;;5.10;;
15102;SDS011;7652;53.584;9.998;2023-06-24T05:32:29;5.87;;;4.93;;
15102;SDS011;7652;53.584;9.998;2023-06-24T05:35:51;8.63;;;4.87;;
15102;SDS011;7652;53.584;9.998;2023-06-24T05:39:12;7.00;;;4.60;;
15102;SDS011;7652;53.584;9.998;2023-06-24T05:42:33;4.43;;;4.03;;
15102;SDS011;7652;53.584;9.998;2023-06-24T05:45:56;7.13;;;5.10;;
15102;SDS011;7652;53.584;9.998;2023-06-24T05:49:18;5.07;;;4.10;;
15102;SDS011;7652;53.584;9.998;2023-06-24T05:52:39;5.70;;;4.63;;
15102;SDS011;7652;53.584;9.998;2023-06-24T05:56:01;6.70;;;3.93;;
15102;SDS011;7652;53.584;9.998;2023-06-24T05:59:22;6.23;;;4.10;;
15102;SDS011;7652;53.584;9.998;2023-06-24T06:02:45;4.37;;;3.97;;
15102;SDS011;7652;53.584;9.998;2023-06-24T06:06:07;4.33;;;3.83;;
15102;SDS011;7652;53.584;9.998;2023-06-24T06:09:29;5.33;;;4.20;;
15102;SDS011;7652;53.584;9.998;2023-06-24T06:12:50;4.60;;;4.03;;
15102;SDS011;7652;53.584;9.998;2023-06-24T06:16:13;5.60;;;3.90;;
15102;SDS011;7652;53.584;9.998;2023-06-24T06:19:36;5.80;;;3.50;;
15102;SDS011;7652;53.584;9.998;2023-06-24T06:22:59;6.43;;;4.10;;
15102;SDS011;7652;53.584;9.998;2023-06-24T06:26:20;4.70;;;3.50;;
15102;SDS011;7652;53.584;9.998;2023-06-24T06:29:42;4.37;;;3.80;;
15102;SDS011;7652;53.584;9.998;2023-06-24T06:33:04;4.97;;;3.80;;
15102;SDS011;7652;53.584;9.998;2023-06-24T06:36:27;3.77;;;3.47;;
15102;SDS011;7652;53.584;9.998;2023-06-24T06:39:48;3.43;;;2.73;;
15102;SDS011;7652;53.584;9.998;2023-06-24T06:43:10;3.50;;;2.93;;
15102;SDS011;7652;53.584;9.998;2023-06-24T06:46:31;3.27;;;2.97;;
15102;SDS011;7652;53.584;9.998;2023-06-24T06:49:53;3.43;;;2.60;;
15102;SDS011;7652;53.584;9.998;2023-06-24T06:53:16;3.33;;;2.83;;
15102;SDS011;7652;53.584;9.998;2023-06-24T06:56:38;4.77;;;3.20;;
15102;SDS011;7652;53.584;9.998;2023-06-24T06:59:59;5.63;;;3.00;;
15102;SDS011;7652;53.584;9.998;2023-06-24T07:03:21;4.97;;;2.57;;
15102;SDS011;7652;53.584;9.998;2023-06-24T07:06:42;3.60;;;2.80;;
15102;SDS011;7652;53.584;9.998;2023-06-24T07:10:06;3.43;;;3.03;;
15102;SDS011;7652;53.584;9.998;2023-06-24T07:13:28;3.07;;;2.77;;
15102;SDS011;7652;53.584;9.998;2023-06-24T07:16:49;3.63;;;2.87;;
15102;SDS011;7652;53.584;9.998;2023-06-24T07:20:10;5.47;;;3.10;;
15102;SDS011;7652;53.584;9.998;2023-06-24T07:23:32;3.07;;;2.50;;
15102;SDS011;7652;53.584;9.998;2023-06-24T07:26:55;2.70;;;2.50;;
15102;SDS011;7652;53.584;9.998;2023-06-24T07:30:16;2.87;;;2.63;;
15102;SDS011;7652;53.584;9.998;2023-06-24T07:33:37;3.67;;;2.63;;
15102;SDS011;7652;53.584;9.998;2023-06-24T07:36:59;3.37;;;3.00;;
15102;SDS011;7652;53.584;9.998;2023-06-24T07:40:38;3.53;;;2.63;;
15102;SDS011;7652;53.584;9.998;2023-06-24T07:44:01;4.53;;;2.90;;
15102;SDS011;7652;53.584;9.998;2023-06-24T07:47:22;3.83;;;2.70;;
15102;SDS011;7652;53.584;9.998;2023-06-24T07:50:44;3.80;;;2.80;;
15102;SDS011;7652;53.584;9.998;2023-06-24T07:54:05;2.67;;;2.20;;
15102;SDS011;7652;53.584;9.998;2023-06-24T07:57:26;3.43;;;2.90;;
15102;SDS011;7652;53.584;9.998;2023-06-24T08:00:49;3.43;;;3.13;;
15102;SDS011;7652;53.584;9.998;2023-06-24T08:04:10;2.67;;;2.40;;
15102;SDS011;7652;53.584;9.998;2023-06-24T08:07:32;3.03;;;2.73;;
15102;SDS011;7652;53.584;9.998;2023-06-24T08:10:54;4.73;;;2.77;;
15102;SDS011;7652;53.584;9.998;2023-06-24T08:14:15;4.53;;;3.50;;
15102;SDS011;7652;53.584;9.998;2023-06-24T08:17:38;4.10;;;3.70;;
15102;SDS011;7652;53.584;9.998;2023-06-24T08:20:59;5.53;;;2.93;;
15102;SDS011;7652;53.584;9.998;2023-06-24T08:24:21;3.50;;;3.20;;
15102;SDS011;7652;53.584;9.998;2023-06-24T08:27:42;4.73;;;3.33;;
15102;SDS011;7652;53.584;9.998;2023-06-24T08:31:06;3.47;;;2.90;;
15102;SDS011;7652;53.584;9.998;2023-06-24T08:34:29;4.10;;;3.57;;
15102;SDS011;7652;53.584;9.998;2023-06-24T08:37:50;3.10;;;2.67;;
15102;SDS011;7652;53.584;9.998;2023-06-24T08:41:11;4.53;;;3.50;;
15102;SDS011;7652;53.584;9.998;2023-06-24T08:44:33;5.20;;;3.20;;
15102;SDS011;7652;53.584;9.998;2023-06-24T08:47:54;3.50;;;3.20;;
15102;SDS011;7652;53.584;9.998;2023-06-24T08:51:18;4.07;;;3.20;;
15102;SDS011;7652;53.584;9.998;2023-06-24T08:54:45;3.80;;;2.93;;
15102;SDS011;7652;53.584;9.998;2023-06-24T08:58:09;3.10;;;2.80;;
15102;SDS011;7652;53.584;9.998;2023-06-24T09:01:30;3.73;;;3.00;;
15102;SDS011;7652;53.584;9.998;2023-06-24T09:04:52;3.03;;;2.70;;
15102;SDS011;7652;53.584;9.998;2023-06-24T09:08:16;3.57;;;2.93;;
15102;SDS011;7652;53.584;9.998;2023-06-24T09:11:37;3.50;;;3.20;;
15102;SDS011;7652;53.584;9.998;2023-06-24T09:14:59;3.70;;;2.90;;
15102;SDS011;7652;53.584;9.998;2023-06-24T09:18:21;3.37;;;3.07;;
15102;SDS011;7652;53.584;9.998;2023-06-24T09:21:52;3.67;;;2.90;;
15102;SDS011;7652;53.584;9.998;2023-06-24T09:25:17;3.70;;;2.93;;
15102;SDS011;7652;53.584;9.998;2023-06-24T09:28:39;4.97;;;2.90;;
15102;SDS011;7652;53.584;9.998;2023-06-24T09:32:03;4.00;;;2.90;;
15102;SDS011;7652;53.584;9.998;2023-06-24T09:35:25;2.83;;;2.43;;
15102;SDS011;7652;53.584;9.998;2023-06-24T09:38:47;3.00;;;2.70;;
15102;SDS011;7652;53.584;9.998;2023-06-24T09:42:10;2.80;;;2.60;;
15102;SDS011;7652;53.584;9.998;2023-06-24T09:45:32;3.17;;;2.87;;
15102;SDS011;7652;53.584;9.998;2023-06-24T09:48:54;4.23;;;3.00;;
15102;SDS011;7652;53.584;9.998;2023-06-24T09:52:17;3.40;;;3.00;;
15102;SDS011;7652;53.584;9.998;2023-06-24T09:55:40;3.50;;;3.20;;
15102;SDS011;7652;53.584;9.998;2023-06-24T09:59:07;3.27;;;2.90;;
15102;SDS011;7652;53.584;9.998;2023-06-24T10:02:29;4.07;;;3.40;;
15102;SDS011;7652;53.584;9.998;2023-06-24T10:05:52;3.20;;;2.90;;
15102;SDS011;7652;53.584;9.998;2023-06-24T10:09:14;3.27;;;2.90;;
15102;SDS011;7652;53.584;9.998;2023-06-24T10:12:38;3.87;;;3.30;;
15102;SDS011;7652;53.584;9.998;2023-06-24T10:16:00;4.63;;;3.27;;
15102;SDS011;7652;53.584;9.998;2023-06-24T10:19:23;3.83;;;3.23;;
15102;SDS011;7652;53.584;9.998;2023-06-24T10:22:45;5.20;;;3.40;;
15102;SDS011;7652;53.584;9.998;2023-06-24T10:26:07;4.93;;;3.77;;
15102;SDS011;7652;53.584;9.998;2023-06-24T10:29:30;4.93;;;3.80;;
15102;SDS011;7652;53.584;9.998;2023-06-24T10:32:54;3.80;;;3.43;;
15102;SDS011;7652;53.584;9.998;2023-06-24T10:36:31;5.43;;;3.93;;
15102;SDS011;7652;53.584;9.998;2023-06-24T10:39:53;3.93;;;3.53;;
15102;SDS011;7652;53.584;9.998;2023-06-24T10:46:53;4.50;;;3.53;;
15102;SDS011;7652;53.584;9.998;2023-06-24T10:50:17;4.93;;;3.23;;
15102;SDS011;7652;53.584;9.998;2023-06-24T10:53:40;3.77;;;3.40;;
15102;SDS011;7652;53.584;9.998;2023-06-24T10:57:03;3.77;;;3.47;;
15102;SDS011;7652;53.584;9.998;2023-06-24T11:00:25;3.80;;;3.50;;
15102;SDS011;7652;53.584;9.998;2023-06-24T11:03:46;3.37;;;3.07;;
15102;SDS011;7652;53.584;9.998;2023-06-24T11:07:09;4.13;;;3.67;;
15102;SDS011;7652;53.584;9.998;2023-06-24T11:10:31;4.23;;;3.73;;
15102;SDS011;7652;53.584;9.998;2023-06-24T11:13:53;4.53;;;3.80;;
15102;SDS011;7652;53.584;9.998;2023-06-24T11:17:15;5.03;;;3.60;;
15102;SDS011;7652;53.584;9.998;2023-06-24T11:20:36;3.80;;;3.50;;
15102;SDS011;7652;53.584;9.998;2023-06-24T11:24:01;3.90;;;3.50;;
15102;SDS011;7652;53.584;9.998;2023-06-24T11:27:24;3.40;;;3.10;;
15102;SDS011;7652;53.584;9.998;2023-06-24T11:30:46;3.73;;;3.43;;
15102;SDS011;7652;53.584;9.998;2023-06-24T11:34:08;6.20;;;3.90;;
15102;SDS011;7652;53.584;9.998;2023-06-24T11:37:30;4.23;;;3.83;;
15102;SDS011;7652;53.584;9.998;2023-06-24T11:40:54;3.80;;;3.40;;
15102;SDS011;7652;53.584;9.998;2023-06-24T11:44:18;3.33;;;3.03;;
15102;SDS011;7652;53.584;9.998;2023-06-24T11:47:40;3.83;;;3.03;;
15102;SDS011;7652;53.584;9.998;2023-06-24T11:51:02;3.13;;;2.93;;
15102;SDS011;7652;53.584;9.998;2023-06-24T11:54:24;3.63;;;3.33;;
15102;SDS011;7652;53.584;9.998;2023-06-24T11:57:53;3.57;;;3.27;;
15102;SDS011;7652;53.584;9.998;2023-06-24T12:01:16;4.03;;;3.70;;
15102;SDS011;7652;53.584;9.998;2023-06-24T12:04:38;4.80;;;3.27;;
15102;SDS011;7652;53.584;9.998;2023-06-24T12:08:05;3.50;;;3.20;;
15102;SDS011;7652;53.584;9.998;2023-06-24T12:11:27;4.87;;;3.50;;
15102;SDS011;7652;53.584;9.998;2023-06-24T12:14:50;3.60;;;3.30;;
15102;SDS011;7652;53.584;9.998;2023-06-24T12:18:11;3.80;;;3.40;;
15102;SDS011;7652;53.584;9.998;2023-06-24T12:21:33;4.13;;;3.53;;
15102;SDS011;7652;53.584;9.998;2023-06-24T12:24:54;6.33;;;3.23;;
15102;SDS011;7652;53.584;9.998;2023-06-24T12:28:16;4.50;;;3.70;;
15102;SDS011;7652;53.584;9.998;2023-06-24T12:31:39;3.70;;;3.40;;
15102;SDS011;7652;53.584;9.998;2023-06-24T12:35:00;3.80;;;3.30;;
15102;SDS011;7652;53.584;9.998;2023-06-24T12:38:22;3.40;;;3.03;;
15102;SDS011;7652;53.584;9.998;2023-06-24T12:41:44;3.30;;;3.00;;
15102;SDS011;7652;53.584;9.998;2023-06-24T12:45:05;3.37;;;3.07;;
15102;SDS011;7652;53.584;9.998;2023-06-24T12:48:29;3.53;;;3.23;;
15102;SDS011;7652;53.584;9.998;2023-06-24T12:51:50;3.30;;;3.00;;
15102;SDS011;7652;53.584;9.998;2023-06-24T12:55:12;3.33;;;3.03;;
15102;SDS011;7652;53.584;9.998;2023-06-24T12:58:36;3.23;;;2.90;;
15102;SDS011;7652;53.584;9.998;2023-06-24T13:01:57;3.50;;;3.30;;
15102;SDS011;7652;53.584;9.998;2023-06-24T13:05:20;3.40;;;3.10;;
15102;SDS011;7652;53.584;9.998;2023-06-24T13:08:42;4.17;;;3.40;;
15102;SDS011;7652;53.584;9.998;2023-06-24T13:12:04;4.23;;;3.33;;
15102;SDS011;7652;53.584;9.998;2023-06-24T13:15:28;6.00;;;3.23;;
15102;SDS011;7652;53.584;9.998;2023-06-24T13:18:50;3.77;;;3.10;;
15102;SDS011;7652;53.584;9.998;2023-06-24T13:22:13;3.50;;;3.20;;
15102;SDS011;7652;53.584;9.998;2023-06-24T13:25:34;3.73;;;3.33;;
15102;SDS011;7652;53.584;9.998;2023-06-24T13:28:55;3.50;;;3.20;;
15102;SDS011;7652;53.584;9.998;2023-06-24T13:32:17;3.20;;;2.90;;
15102;SDS011;7652;53.584;9.998;2023-06-24T13:35:39;3.47;;;3.17;;
15102;SDS011;7652;53.584;9.998;2023-06-24T13:39:02;3.43;;;2.93;;
15102;SDS011;7652;53.584;9.998;2023-06-24T13:42:24;3.47;;;3.17;;
15102;SDS011;7652;53.584;9.998;2023-06-24T13:45:46;3.43;;;3.13;;
15102;SDS011;7652;53.584;9.998;2023-06-24T13:49:09;3.20;;;2.90;;
15102;SDS011;7652;53.584;9.998;2023-06-24T13:52:31;3.50;;;3.20;;
15102;SDS011;7652;53.584;9.998;2023-06-24T13:55:54;3.40;;;3.10;;
15102;SDS011;7652;53.584;9.998;2023-06-24T13:59:15;3.93;;;3.00;;
15102;SDS011;7652;53.584;9.998;2023-06-24T14:02:37;3.10;;;2.90;;
15102;SDS011;7652;53.584;9.998;2023-06-24T14:05:59;3.20;;;2.90;;
15102;SDS011;7652;53.584;9.998;2023-06-24T14:09:21;3.07;;;2.87;;
15102;SDS011;7652;53.584;9.998;2023-06-24T14:12:44;3.40;;;3.10;;
15102;SDS011;7652;53.584;9.998;2023-06-24T14:16:05;2.73;;;2.53;;
15102;SDS011;7652;53.584;9.998;2023-06-24T14:19:27;3.10;;;2.90;;
15102;SDS011;7652;53.584;9.998;2023-06-24T14:22:48;3.07;;;2.77;;
15102;SDS011;7652;53.584;9.998;2023-06-24T14:26:10;5.23;;;3.30;;
15102;SDS011;7652;53.584;9.998;2023-06-24T14:29:33;3.57;;;3.27;;
15102;SDS011;7652;53.584;9.998;2023-06-24T14:32:55;3.40;;;3.10;;
15102;SDS011;7652;53.584;9.998;2023-06-24T14:36:16;3.30;;;3.00;;
15102;SDS011;7652;53.584;9.998;2023-06-24T14:39:38;4.53;;;3.50;;
15102;SDS011;7652;53.584;9.998;2023-06-24T14:43:01;3.77;;;3.13;;
15102;SDS011;7652;53.584;9.998;2023-06-24T14:46:24;4.27;;;3.20;;
15102;SDS011;7652;53.584;9.998;2023-06-24T14:49:46;3.40;;;3.10;;
15102;SDS011;7652;53.584;9.998;2023-06-24T14:53:07;4.33;;;3.17;;
15102;SDS011;7652;53.584;9.998;2023-06-24T14:56:29;5.27;;;3.13;;
15102;SDS011;7652;53.584;9.998;2023-06-24T14:59:50;4.63;;;3.83;;
15102;SDS011;7652;53.584;9.998;2023-06-24T15:03:13;2.90;;;2.70;;
15102;SDS011;7652;53.584;9.998;2023-06-24T15:06:34;4.93;;;3.30;;
15102;SDS011;7652;53.584;9.998;2023-06-24T15:09:56;3.33;;;3.03;;
15102;SDS011;7652;53.584;9.998;2023-06-24T15:13:17;3.60;;;3.30;;
15102;SDS011;7652;53.584;9.998;2023-06-24T15:16:39;2.80;;;2.60;;
15102;SDS011;7652;53.584;9.998;2023-06-24T15:20:02;3.37;;;3.07;;
15102;SDS011;7652;53.584;9.998;2023-06-24T15:23:24;3.70;;;3.40;;
15102;SDS011;7652;53.584;9.998;2023-06-24T15:26:46;3.30;;;3.10;;
15102;SDS011;7652;53.584;9.998;2023-06-24T15:30:09;3.10;;;2.90;;
15102;SDS011;7652;53.584;9.998;2023-06-24T15:33:31;3.20;;;2.90;;
15102;SDS011;7652;53.584;9.998;2023-06-24T15:36:54;3.93;;;3.40;;
15102;SDS011;7652;53.584;9.998;2023-06-24T15:40:15;3.50;;;3.20;;
15102;SDS011;7652;53.584;9.998;2023-06-24T15:43:36;5.50;;;3.37;;
15102;SDS011;7652;53.584;9.998;2023-06-24T15:46:58;3.73;;;3.37;;
15102;SDS011;7652;53.584;9.998;2023-06-24T15:50:19;3.83;;;3.50;;
15102;SDS011;7652;53.584;9.998;2023-06-24T15:53:42;3.53;;;3.23;;
15102;SDS011;7652;53.584;9.998;2023-06-24T15:57:04;3.10;;;2.90;;
15102;SDS011;7652;53.584;9.998;2023-06-24T16:00:25;4.60;;;3.07;;
15102;SDS011;7652;53.584;9.998;2023-06-24T16:03:46;3.70;;;3.40;;
15102;SDS011;7652;53.584;9.998;2023-06-24T16:07:08;5.33;;;3.47;;
15102;SDS011;7652;53.584;9.998;2023-06-24T16:10:31;3.63;;;3.20;;
15102;SDS011;7652;53.584;9.998;2023-06-24T16:13:53;8.90;;;6.30;;
15102;SDS011;7652;53.584;9.998;2023-06-24T16:17:15;3.47;;;3.17;;
15102;SDS011;7652;53.584;9.998;2023-06-24T16:20:36;3.40;;;3.10;;
15102;SDS011;7652;53.584;9.998;2023-06-24T16:23:58;5.30;;;3.70;;
15102;SDS011;7652;53.584;9.998;2023-06-24T16:27:20;4.00;;;3.60;;
15102;SDS011;7652;53.584;9.998;2023-06-24T16:30:42;3.90;;;3.60;;
15102;SDS011;7652;53.584;9.998;2023-06-24T16:34:03;3.90;;;3.60;;
15102;SDS011;7652;53.584;9.998;2023-06-24T16:37:25;4.87;;;3.80;;
15102;SDS011;7652;53.584;9.998;2023-06-24T16:40:46;3.70;;;3.40;;
15102;SDS011;7652;53.584;9.998;2023-06-24T16:44:09;4.00;;;3.47;;
15102;SDS011;7652;53.584;9.998;2023-06-24T16:47:30;3.73;;;3.43;;
15102;SDS011;7652;53.584;9.998;2023-06-24T16:50:52;4.00;;;3.30;;
15102;SDS011;7652;53.584;9.998;2023-06-24T16:54:14;3.97;;;3.30;;
15102;SDS011;7652;53.584;9.998;2023-06-24T16:57:36;4.23;;;3.30;;
15102;SDS011;7652;53.584;9.998;2023-06-24T17:00:59;4.30;;;3.50;;
15102;SDS011;7652;53.584;9.998;2023-06-24T17:04:21;3.73;;;3.10;;
15102;SDS011;7652;53.584;9.998;2023-06-24T17:07:42;3.87;;;3.40;;
15102;SDS011;7652;53.584;9.998;2023-06-24T17:11:04;3.90;;;3.60;;
15102;SDS011;7652;53.584;9.998;2023-06-24T17:14:26;4.63;;;3.83;;
15102;SDS011;7652;53.584;9.998;2023-06-24T17:17:49;4.13;;;3.73;;
15102;SDS011;7652;53.584;9.998;2023-06-24T17:21:11;7.37;;;3.97;;
15102;SDS011;7652;53.584;9.998;2023-06-24T17:24:32;4.40;;;3.70;;
15102;SDS011;7652;53.584;9.998;2023-06-24T17:27:53;4.87;;;4.43;;
15102;SDS011;7652;53.584;9.998;2023-06-24T17:31:15;4.27;;;3.93;;
15102;SDS011;7652;53.584;9.998;2023-06-24T17:34:39;4.50;;;4.17;;
15102;SDS011;7652;53.584;9.998;2023-06-24T17:38:00;4.30;;;3.90;;
15102;SDS011;7652;53.584;9.998;2023-06-24T17:41:22;4.10;;;3.70;;
15102;SDS011;7652;53.584;9.998;2023-06-24T17:44:43;4.20;;;3.90;;
15102;SDS011;7652;53.584;9.998;2023-06-24T17:48:06;6.40;;;4.27;;
15102;SDS011;7652;53.584;9.998;2023-06-24T17:51:30;4.70;;;4.20;;
15102;SDS011;7652;53.584;9.998;2023-06-24T17:54:51;4.10;;;3.70;;
15102;SDS011;7652;53.584;9.998;2023-06-24T17:58:12;4.63;;;4.23;;
15102;SDS011;7652;53.584;9.998;2023-06-24T18:01:34;3.80;;;3.10;;
15102;SDS011;7652;53.584;9.998;2023-06-24T18:04:56;3.80;;;3.50;;
15102;SDS011;7652;53.584;9.998;2023-06-24T18:08:18;4.13;;;3.73;;
15102;SDS011;7652;53.584;9.998;2023-06-24T18:11:40;3.90;;;3.57;;
15102;SDS011;7652;53.584;9.998;2023-06-24T18:15:01;4.80;;;3.77;;
15102;SDS011;7652;53.584;9.998;2023-06-24T18:18:23;3.80;;;3.50;;
15102;SDS011;7652;53.584;9.998;2023-06-24T18:21:44;4.37;;;3.43;;
15102;SDS011;7652;53.584;9.998;2023-06-24T18:25:08;4.40;;;3.40;;
15102;SDS011;7652;53.584;9.998;2023-06-24T18:28:30;4.70;;;3.10;;
15102;SDS011;7652;53.584;9.998;2023-06-24T18:31:51;3.97;;;3.40;;
15102;SDS011;7652;53.584;9.998;2023-06-24T18:35:13;3.70;;;3.40;;
15102;SDS011;7652;53.584;9.998;2023-06-24T18:38:34;3.50;;;3.20;;
15102;SDS011;7652;53.584;9.998;2023-06-24T18:41:57;4.00;;;3.40;;
15102;SDS011;7652;53.584;9.998;2023-06-24T18:45:18;3.50;;;3.20;;
15102;SDS011;7652;53.584;9.998;2023-06-24T18:48:41;3.60;;;3.30;;
15102;SDS011;7652;53.584;9.998;2023-06-24T18:52:03;3.83;;;3.10;;
15102;SDS011;7652;53.584;9.998;2023-06-24T18:55:25;3.30;;;3.10;;
15102;SDS011;7652;53.584;9.998;2023-06-24T18:58:48;5.50;;;3.73;;
15102;SDS011;7652;53.584;9.998;2023-06-24T19:02:09;4.30;;;3.90;;
15102;SDS011;7652;53.584;9.998;2023-06-24T19:05:31;3.90;;;3.50;;
15102;SDS011;7652;53.584;9.998;2023-06-24T19:08:52;3.57;;;3.27;;
15102;SDS011;7652;53.584;9.998;2023-06-24T19:12:13;4.77;;;3.20;;
15102;SDS011;7652;53.584;9.998;2023-06-24T19:15:37;3.30;;;3.00;;
15102;SDS011;7652;53.584;9.998;2023-06-24T19:18:58;3.50;;;3.27;;
15102;SDS011;7652;53.584;9.998;2023-06-24T19:22:22;4.20;;;3.80;;
15102;SDS011;7652;53.584;9.998;2023-06-24T19:25:43;4.37;;;4.07;;
15102;SDS011;7652;53.584;9.998;2023-06-24T19:29:05;4.27;;;3.87;;
15102;SDS011;7652;53.584;9.998;2023-06-24T19:32:27;3.90;;;3.50;;
15102;SDS011;7652;53.584;9.998;2023-06-24T19:35:49;3.73;;;3.43;;
15102;SDS011;7652;53.584;9.998;2023-06-24T19:39:10;3.63;;;3.33;;
15102;SDS011;7652;53.584;9.998;2023-06-24T19:42:32;4.27;;;3.80;;
15102;SDS011;7652;53.584;9.998;2023-06-24T19:45:53;3.97;;;3.40;;
15102;SDS011;7652;53.584;9.998;2023-06-24T19:49:16;3.83;;;3.53;;
15102;SDS011;7652;53.584;9.998;2023-06-24T19:52:37;4.33;;;4.03;;
15102;SDS011;7652;53.584;9.998;2023-06-24T19:55:59;4.20;;;3.77;;
15102;SDS011;7652;53.584;9.998;2023-06-24T19:59:20;4.00;;;3.67;;
15102;SDS011;7652;53.584;9.998;2023-06-24T20:02:41;3.87;;;3.53;;
15102;SDS011;7652;53.584;9.998;2023-06-24T20:06:04;4.67;;;4.20;;
15102;SDS011;7652;53.584;9.998;2023-06-24T20:09:26;4.23;;;3.87;;
15102;SDS011;7652;53.584;9.998;2023-06-24T20:12:47;4.33;;;4.00;;
15102;SDS011;7652;53.584;9.998;2023-06-24T20:16:09;4.07;;;3.70;;
15102;SDS011;7652;53.584;9.998;2023-06-24T20:19:30;4.40;;;4.00;;
15102;SDS011;7652;53.584;9.998;2023-06-24T20:22:53;4.83;;;3.73;;
15102;SDS011;7652;53.584;9.998;2023-06-24T20:26:14;5.57;;;4.47;;
15102;SDS011;7652;53.584;9.998;2023-06-24T20:29:37;4.97;;;4.47;;
15102;SDS011;7652;53.584;9.998;2023-06-24T20:32:58;5.23;;;4.37;;
15102;SDS011;7652;53.584;9.998;2023-06-24T20:36:20;4.33;;;4.03;;
15102;SDS011;7652;53.584;9.998;2023-06-24T20:39:42;5.00;;;4.50;;